Time;durP1;ratioP1;P1;durP2;ratioP2;P2;SDS_P1;SDS_P2;PMS_P1;PMS_P2;Temp;Humidity;BMP_temperature;BMP_pressure;BME280_temperature;BME280_humidity;BME280_pressure;Samples;Min_cycle;Max_cycle;Signal;HPM_P1;HPM_P2
2024/04/12 00:01:16;;;;;;;83.67;79.37;;;22.50;1.00;;;;;;2606286;54;20475;-71
2024/04/12 00:03:43;;;;;;;83.67;79.27;;;22.50;1.00;;;;;;2606189;54;20419;-71
2024/04/12 00:06:16;;;;;;;84.97;80.57;;;22.50;1.00;;;;;;2609557;46;20431;-71
2024/04/12 00:08:49;;;;;;;86.07;81.57;;;22.50;1.00;;;;;;2608757;47;20423;-71
2024/04/12 00:11:19;;;;;;;83.57;79.27;;;22.50;1.00;;;;;;2608361;54;20423;-71
2024/04/12 00:13:46;;;;;;;82.80;78.60;;;22.50;1.00;;;;;;2607653;51;20415;-71
2024/04/12 00:16:12;;;;;;;84.33;79.93;;;22.50;1.00;;;;;;2606927;54;20419;-71
2024/04/12 00:18:38;;;;;;;83.43;79.13;;;22.50;1.00;;;;;;2609024;54;20427;-70
2024/04/12 00:21:07;;;;;;;83.43;79.13;;;22.50;1.00;;;;;;2608300;54;20972;-71
2024/04/12 00:23:34;;;;;;;82.07;77.87;;;22.40;1.00;;;;;;2607911;47;20415;-71
2024/04/12 00:26:01;;;;;;;83.10;78.80;;;22.40;1.00;;;;;;2608301;47;20468;-65
2024/04/12 00:28:30;;;;;;;83.30;78.97;;;22.40;1.00;;;;;;2608570;47;20404;-66
2024/04/12 00:31:06;;;;;;;83.63;79.33;;;22.40;1.00;;;;;;2608056;54;20452;-65
2024/04/12 00:33:34;;;;;;;82.87;78.57;;;22.40;1.00;;;;;;2607315;47;20422;-65
2024/04/12 00:36:07;;;;;;;84.10;79.70;;;22.40;1.00;;;;;;2608314;54;20608;-73
2024/04/12 00:38:36;;;;;;;83.27;78.97;;;22.40;1.00;;;;;;2609167;39;20873;-73
2024/04/12 00:41:12;;;;;;;83.40;79.10;;;22.40;1.00;;;;;;2607897;54;21015;-73
2024/04/12 00:43:49;;;;;;;83.47;79.17;;;22.40;1.00;;;;;;2608579;54;20496;-73
2024/04/12 00:46:18;;;;;;;84.83;80.43;;;22.40;1.00;;;;;;2608839;54;20425;-66
2024/04/12 00:48:48;;;;;;;83.37;79.03;;;22.40;1.00;;;;;;2607874;54;20446;-66
2024/04/12 00:51:17;;;;;;;83.47;79.10;;;22.40;1.00;;;;;;2607596;54;20884;-66
2024/04/12 00:53:48;;;;;;;83.90;79.50;;;22.40;1.00;;;;;;2607326;47;20514;-67
2024/04/12 00:56:15;;;;;;;83.93;79.53;;;22.40;1.00;;;;;;2607919;54;20416;-67
2024/04/12 00:58:47;;;;;;;83.90;79.50;;;22.40;1.00;;;;;;2607343;54;20407;-66
2024/04/12 01:01:17;;;;;;;83.97;79.67;;;22.40;1.00;;;;;;2604786;54;20446;-66
2024/04/12 01:03:47;;;;;;;83.83;79.53;;;22.40;1.00;;;;;;2605077;54;20424;-66
2024/04/12 01:06:25;;;;;;;83.70;79.40;;;22.40;1.00;;;;;;2604971;54;20414;-66
2024/04/12 01:08:54;;;;;;;84.20;79.80;;;22.40;1.00;;;;;;2605943;47;20415;-66
2024/04/12 01:11:21;;;;;;;84.47;80.07;;;22.40;1.00;;;;;;2607282;54;20427;-66
2024/04/12 01:13:48;;;;;;;83.47;79.17;;;22.40;1.00;;;;;;2608608;54;20431;-65
2024/04/12 01:16:15;;;;;;;82.17;77.97;;;22.40;1.00;;;;;;2610749;54;20458;-65
2024/04/12 01:18:43;;;;;;;88.23;83.63;;;22.40;1.00;;;;;;2607826;54;20522;-66
2024/04/12 01:21:12;;;;;;;82.70;78.50;;;22.40;1.00;;;;;;2606877;54;20514;-66
2024/04/12 01:23:43;;;;;;;83.50;79.20;;;22.40;1.00;;;;;;2606953;47;20427;-66
2024/04/12 01:26:13;;;;;;;86.63;82.17;;;22.40;1.00;;;;;;2606657;54;20419;-66
2024/04/12 01:28:43;;;;;;;83.50;79.20;;;22.40;1.00;;;;;;2606445;47;20404;-66
2024/04/12 01:31:14;;;;;;;82.93;78.63;;;22.40;1.00;;;;;;2606562;54;20487;-66
2024/04/12 01:33:48;;;;;;;84.07;79.67;;;22.40;1.00;;;;;;2607072;47;20415;-66
2024/04/12 01:36:21;;;;;;;83.93;79.53;;;22.40;1.00;;;;;;2607350;54;20420;-70
2024/04/12 01:38:57;;;;;;;82.80;78.50;;;22.40;1.00;;;;;;2607801;39;20754;-70
2024/04/12 01:41:27;;;;;;;83.60;79.30;;;22.40;1.00;;;;;;2613463;54;20479;-69
2024/04/12 01:44:01;;;;;;;84.10;79.70;;;22.40;1.00;;;;;;2606513;54;20404;-70
2024/04/12 01:46:27;;;;;;;83.60;79.20;;;22.40;1.00;;;;;;2607723;47;20522;-72
2024/04/12 01:48:57;;;;;;;83.33;79.00;;;22.40;1.00;;;;;;2608092;54;20923;-73
2024/04/12 01:51:30;;;;;;;83.30;79.00;;;22.40;1.00;;;;;;2607036;54;21527;-73
2024/04/12 01:53:57;;;;;;;88.93;84.33;;;22.40;1.00;;;;;;2607190;54;20467;-73
2024/04/12 01:56:24;;;;;;;84.30;79.90;;;22.30;1.00;;;;;;2607724;54;20429;-71
2024/04/12 01:58:54;;;;;;;83.70;79.40;;;22.30;1.00;;;;;;2606953;46;20427;-72
2024/04/12 02:01:26;;;;;;;83.00;78.70;;;22.30;1.00;;;;;;2605260;39;20818;-71
2024/04/12 02:03:52;;;;;;;83.83;79.43;;;22.30;1.00;;;;;;2604857;54;20419;-72
2024/04/12 02:06:18;;;;;;;82.60;78.30;;;22.30;1.00;;;;;;2605277;47;20431;-72
2024/04/12 02:08:44;;;;;;;83.80;79.50;;;22.30;1.00;;;;;;2605571;54;21005;-72
2024/04/12 02:11:11;;;;;;;84.10;79.70;;;22.30;1.00;;;;;;2607856;54;20159;-72
2024/04/12 02:13:37;;;;;;;84.60;80.20;;;22.30;1.00;;;;;;2606277;47;20173;-72
2024/04/12 02:16:10;;;;;;;84.17;79.87;;;22.30;1.00;;;;;;2607119;54;20412;-73
2024/04/12 02:18:38;;;;;;;83.70;79.40;;;22.30;1.00;;;;;;2607670;54;20606;-71
2024/04/12 02:21:06;;;;;;;83.43;79.13;;;22.30;1.00;;;;;;2607812;54;20456;-72
2024/04/12 02:23:33;;;;;;;83.80;79.50;;;22.30;1.00;;;;;;2607424;54;20526;-71
2024/04/12 02:26:01;;;;;;;84.03;79.73;;;22.30;1.00;;;;;;2607021;39;20843;-72
2024/04/12 02:28:27;;;;;;;84.20;79.90;;;22.30;1.00;;;;;;2607774;54;21008;-72
2024/04/12 02:30:57;;;;;;;84.37;80.07;;;22.30;1.00;;;;;;2607594;39;20865;-72
2024/04/12 02:33:30;;;;;;;83.23;78.93;;;22.30;1.00;;;;;;2607688;54;20423;-72
2024/04/12 02:36:01;;;;;;;83.13;78.83;;;22.30;1.00;;;;;;2607250;47;20436;-73
2024/04/12 02:38:28;;;;;;;83.87;79.57;;;22.30;1.00;;;;;;2607065;54;20431;-72
2024/04/12 02:40:58;;;;;;;84.10;79.80;;;22.30;1.00;;;;;;2607490;54;20403;-71
2024/04/12 02:43:29;;;;;;;83.70;79.40;;;22.30;1.00;;;;;;2607555;54;20526;-71
2024/04/12 02:46:00;;;;;;;84.50;80.10;;;22.30;1.00;;;;;;2607671;39;20941;-73
2024/04/12 02:48:28;;;;;;;84.10;79.70;;;22.30;1.00;;;;;;2607107;39;20803;-72
2024/04/12 02:50:55;;;;;;;83.67;79.37;;;22.30;1.00;;;;;;2607057;54;21972;-73
2024/04/12 02:53:25;;;;;;;83.60;79.30;;;22.30;1.00;;;;;;2607495;54;20455;-73
2024/04/12 02:56:09;;;;;;;84.23;79.83;;;22.30;1.00;;;;;;2607144;54;21096;-65
2024/04/12 02:58:39;;;;;;;83.93;79.53;;;22.30;1.00;;;;;;2606242;54;20422;-66
2024/04/12 03:01:24;;;;;;;84.70;80.30;;;22.30;1.00;;;;;;2604688;39;21297;-65
2024/04/12 03:03:51;;;;;;;84.60;80.20;;;22.30;1.00;;;;;;2604899;47;20415;-67
2024/04/12 03:06:23;;;;;;;85.10;80.60;;;22.30;1.00;;;;;;2604248;54;20389;-71
2024/04/12 03:08:51;;;;;;;84.17;79.77;;;22.30;1.00;;;;;;2607114;39;20882;-70
2024/04/12 03:11:22;;;;;;;85.07;80.57;;;22.30;1.00;;;;;;2606611;54;20431;-70
2024/04/12 03:13:50;;;;;;;84.97;80.47;;;22.30;1.00;;;;;;2606388;54;20423;-71
2024/04/12 03:16:18;;;;;;;84.27;79.87;;;22.30;1.00;;;;;;2607222;54;22158;-71
2024/04/12 03:18:45;;;;;;;84.93;80.43;;;22.30;1.00;;;;;;2607510;54;20417;-71
2024/04/12 03:21:13;;;;;;;84.10;79.70;;;22.30;1.00;;;;;;2608279;54;20407;-71
2024/04/12 03:23:43;;;;;;;84.47;80.07;;;22.30;1.00;;;;;;2608024;47;20431;-71
2024/04/12 03:26:12;;;;;;;84.40;80.00;;;22.30;1.00;;;;;;2607966;51;20526;-71
2024/04/12 03:28:39;;;;;;;84.67;80.27;;;22.30;1.00;;;;;;2607556;54;20407;-70
2024/04/12 03:31:07;;;;;;;84.47;79.97;;;22.30;1.00;;;;;;2607251;47;20511;-70
2024/04/12 03:33:42;;;;;;;84.33;79.93;;;22.30;1.00;;;;;;2607858;54;21413;-70
2024/04/12 03:39:34;;;;;;;84.70;80.30;;;22.30;1.00;;;;;;2607217;47;20427;-70
2024/04/12 03:42:04;;;;;;;83.80;79.43;;;22.30;1.00;;;;;;2607698;54;20431;-70
2024/04/12 03:44:31;;;;;;;84.40;80.00;;;22.30;1.00;;;;;;2606955;54;21311;-70
2024/04/12 03:47:07;;;;;;;84.77;80.27;;;22.30;1.00;;;;;;2607277;54;20503;-70
2024/04/12 03:49:36;;;;;;;84.80;80.30;;;22.30;1.00;;;;;;2608282;54;21029;-70
2024/04/12 03:52:04;;;;;;;83.83;79.53;;;22.20;1.00;;;;;;2607302;54;20954;-70
2024/04/12 03:54:30;;;;;;;84.30;79.80;;;22.30;1.00;;;;;;2607693;54;20566;-72
2024/04/12 03:56:57;;;;;;;83.33;78.93;;;22.20;1.00;;;;;;2608309;47;20893;-71
2024/04/12 03:59:25;;;;;;;83.07;78.77;;;22.20;1.00;;;;;;2606786;54;20714;-72
2024/04/12 04:01:54;;;;;;;83.57;79.20;;;22.30;1.00;;;;;;2606386;54;20446;-72
2024/04/12 04:04:25;;;;;;;84.60;80.10;;;22.30;1.00;;;;;;2605950;47;20442;-72
2024/04/12 04:06:55;;;;;;;83.93;79.43;;;22.30;1.00;;;;;;2605967;54;20474;-71
2024/04/12 04:09:27;;;;;;;83.30;78.90;;;22.30;1.00;;;;;;2608147;54;20427;-71
2024/04/12 04:11:54;;;;;;;83.27;78.87;;;22.30;1.00;;;;;;2607906;54;20419;-76
2024/04/12 04:14:25;;;;;;;83.37;78.97;;;22.30;1.00;;;;;;2608421;39;20873;-72
2024/04/12 04:17:01;;;;;;;82.70;78.40;;;22.30;1.00;;;;;;2608463;47;20427;-72
2024/04/12 04:19:33;;;;;;;84.53;80.03;;;22.40;1.00;;;;;;2608686;47;20435;-71
2024/04/12 04:22:21;;;;;;;83.53;79.13;;;22.40;1.00;;;;;;2608046;39;21372;-72
2024/04/12 04:24:48;;;;;;;84.03;79.53;;;22.40;1.00;;;;;;2608271;39;20790;-71
2024/04/12 04:27:15;;;;;;;84.40;79.90;;;22.40;1.00;;;;;;2607470;54;20557;-71
2024/04/12 04:29:44;;;;;;;82.70;78.30;;;22.40;1.00;;;;;;2607748;54;20431;-72
2024/04/12 04:32:10;;;;;;;84.40;79.90;;;22.30;1.00;;;;;;2608077;54;20423;-71
2024/04/12 04:34:36;;;;;;;84.27;79.77;;;22.30;1.00;;;;;;2608210;39;20821;-71
2024/04/12 04:37:05;;;;;;;84.20;79.60;;;22.30;1.00;;;;;;2608721;54;20459;-71
2024/04/12 04:39:32;;;;;;;82.97;78.57;;;22.30;1.00;;;;;;2608191;54;20426;-73
2024/04/12 04:41:59;;;;;;;84.00;79.50;;;22.30;1.00;;;;;;2608616;51;20411;-71
2024/04/12 04:44:25;;;;;;;84.40;79.90;;;22.30;1.00;;;;;;2607293;54;20410;-72
2024/04/12 04:46:53;;;;;;;83.80;79.40;;;22.30;1.00;;;;;;2607840;54;20404;-72
2024/04/12 04:49:23;;;;;;;83.73;79.23;;;22.30;1.00;;;;;;2608351;39;20558;-72
2024/04/12 04:51:49;;;;;;;83.90;79.40;;;22.30;1.00;;;;;;2606909;47;20503;-73
2024/04/12 04:54:16;;;;;;;83.40;79.00;;;22.30;1.00;;;;;;2608198;54;20459;-73
2024/04/12 04:56:44;;;;;;;83.17;78.77;;;22.30;1.00;;;;;;2608487;54;20941;-74
2024/04/12 04:59:16;;;;;;;83.23;78.73;;;22.30;1.00;;;;;;2607829;46;20439;-74
2024/04/12 05:01:48;;;;;;;84.03;79.43;;;22.30;1.00;;;;;;2606684;31;21070;-74
2024/04/12 05:04:18;;;;;;;84.20;79.60;;;22.30;1.00;;;;;;2605483;54;20522;-74
2024/04/12 05:06:44;;;;;;;83.50;79.10;;;22.30;1.00;;;;;;2605715;54;20431;-66
2024/04/12 05:09:12;;;;;;;83.30;78.90;;;22.20;1.00;;;;;;2607137;54;20486;-66
2024/04/12 05:11:41;;;;;;;83.87;79.37;;;22.20;1.00;;;;;;2607829;54;20911;-66
2024/04/12 05:14:13;;;;;;;84.80;80.20;;;22.20;1.00;;;;;;2607903;54;20457;-66
2024/04/12 05:16:46;;;;;;;85.00;80.40;;;22.20;1.00;;;;;;2608393;39;20917;-70
2024/04/12 05:19:12;;;;;;;84.30;79.80;;;22.20;1.00;;;;;;2607842;47;20412;-68
2024/04/12 05:21:45;;;;;;;84.57;79.97;;;22.20;1.00;;;;;;2607823;54;20411;-68
2024/04/12 05:24:10;;;;;;;83.03;78.57;;;22.30;1.00;;;;;;2607742;54;20404;-70
2024/04/12 05:26:41;;;;;;;84.03;79.53;;;22.30;1.00;;;;;;2608043;54;20406;-69
2024/04/12 05:29:17;;;;;;;83.63;79.10;;;22.20;1.00;;;;;;2607788;47;20419;-70
2024/04/12 05:31:42;;;;;;;85.83;81.23;;;22.20;1.00;;;;;;2608562;39;20497;-71
2024/04/12 05:34:18;;;;;;;85.67;81.07;;;22.20;1.00;;;;;;2608665;54;20419;-70
2024/04/12 05:36:44;;;;;;;85.23;80.63;;;22.20;1.00;;;;;;2607924;54;20226;-71
2024/04/12 05:39:11;;;;;;;84.60;80.00;;;22.20;1.00;;;;;;2608698;39;20783;-70
2024/04/12 05:41:40;;;;;;;84.53;79.93;;;22.20;1.00;;;;;;2611204;54;20169;-70
2024/04/12 05:44:09;;;;;;;84.40;79.90;;;22.20;1.00;;;;;;2613957;39;20844;-70
2024/04/12 05:46:39;;;;;;;84.50;80.00;;;22.20;1.00;;;;;;2611534;54;20431;-70
2024/04/12 05:49:11;;;;;;;84.60;80.10;;;22.20;1.00;;;;;;2607979;54;20420;-70
2024/04/12 05:51:39;;;;;;;83.70;79.20;;;22.20;1.00;;;;;;2607408;39;20893;-70
2024/04/12 05:54:10;;;;;;;84.77;80.27;;;22.20;1.00;;;;;;2607119;54;20447;-70
2024/04/12 05:56:40;;;;;;;83.73;79.33;;;22.20;1.00;;;;;;2607121;54;20461;-70
2024/04/12 05:59:15;;;;;;;82.87;78.47;;;22.20;1.00;;;;;;2606741;47;20450;-71
2024/04/12 06:01:46;;;;;;;83.60;79.20;;;22.20;1.00;;;;;;2606741;54;20935;-70
2024/04/12 06:04:13;;;;;;;83.43;79.03;;;22.20;1.00;;;;;;2607822;47;20555;-70
2024/04/12 06:06:43;;;;;;;83.90;79.40;;;22.20;1.00;;;;;;2608824;54;20411;-69
2024/04/12 06:09:22;;;;;;;83.60;79.10;;;22.30;1.00;;;;;;2607829;54;20995;-70
2024/04/12 06:11:53;;;;;;;83.63;79.13;;;22.30;1.00;;;;;;2607757;54;20419;-70
2024/04/12 06:14:22;;;;;;;80.93;76.73;;;22.30;1.00;;;;;;2610590;39;20780;-66
2024/04/12 06:16:54;;;;;;;81.27;77.07;;;22.40;1.00;;;;;;2609055;54;20436;-65
2024/04/12 06:19:19;;;;;;;81.37;77.17;;;22.50;1.00;;;;;;2609292;54;20404;-66
2024/04/12 06:21:46;;;;;;;82.20;78.00;;;22.60;1.00;;;;;;2610806;47;20428;-65
2024/04/12 06:24:29;;;;;;;81.47;77.27;;;22.70;1.00;;;;;;2610868;39;20253;-67
2024/04/12 06:26:58;;;;;;;81.03;76.83;;;22.80;1.00;;;;;;2609409;54;20429;-70
2024/04/12 06:29:26;;;;;;;80.70;76.60;;;23.00;1.00;;;;;;2609431;47;20419;-70
2024/04/12 06:31:56;;;;;;;84.20;79.70;;;23.00;1.00;;;;;;2609724;54;20399;-65
2024/04/12 06:34:22;;;;;;;82.27;77.97;;;23.10;1.00;;;;;;2609882;39;21485;-69
2024/04/12 06:36:56;;;;;;;82.60;78.30;;;23.10;1.00;;;;;;2609687;47;20443;-65
2024/04/12 06:39:28;;;;;;;81.30;77.10;;;23.10;1.00;;;;;;2608646;47;20426;-67
2024/04/12 06:41:55;;;;;;;82.20;77.90;;;23.10;1.00;;;;;;2610722;47;20443;-68
2024/04/12 06:44:21;;;;;;;82.03;77.83;;;23.20;1.00;;;;;;2610465;39;20781;-66
2024/04/12 06:46:57;;;;;;;81.30;77.20;;;23.20;1.00;;;;;;2612051;54;20415;-68
2024/04/12 06:49:27;;;;;;;78.27;74.37;;;23.20;1.00;;;;;;2610118;54;20270;-67
2024/04/12 06:52:09;;;;;;;79.23;75.33;;;23.20;1.00;;;;;;2610230;54;20424;-72
2024/04/12 06:54:42;;;;;;;75.67;72.17;;;23.20;1.00;;;;;;2611596;47;20450;-66
2024/04/12 06:57:09;;;;;;;74.70;71.20;;;23.30;1.00;;;;;;2608863;39;20834;-65
2024/04/12 06:59:35;;;;;;;76.77;73.17;;;23.20;1.00;;;;;;2610202;54;20403;-66
2024/04/12 07:02:08;;;;;;;75.30;71.80;;;23.20;1.00;;;;;;2610877;47;20423;-66
2024/04/12 07:04:38;;;;;;;76.47;72.87;;;23.10;1.00;;;;;;2610560;39;21288;-66
2024/04/12 07:07:06;;;;;;;76.20;72.60;;;23.00;1.00;;;;;;2610436;39;20790;-66
2024/04/12 07:09:33;;;;;;;77.00;73.40;;;23.00;1.00;;;;;;2610165;47;20442;-66
2024/04/12 07:12:05;;;;;;;77.30;73.60;;;22.90;1.00;;;;;;2611428;39;20812;-64
2024/04/12 07:14:35;;;;;;;77.77;74.17;;;22.90;1.00;;;;;;2613524;54;20416;-65
2024/04/12 07:17:01;;;;;;;77.80;74.10;;;22.80;1.00;;;;;;2613094;54;20431;-67
2024/04/12 07:19:28;;;;;;;75.30;71.80;;;22.80;1.00;;;;;;2614193;47;20475;-66
2024/04/12 07:21:54;;;;;;;76.03;72.43;;;22.80;1.00;;;;;;2613323;54;20880;-65
2024/04/12 07:24:25;;;;;;;77.23;73.53;;;22.80;1.00;;;;;;2613784;39;20801;-67
2024/04/12 07:26:54;;;;;;;75.83;72.23;;;22.80;1.00;;;;;;2613341;39;20611;-67
2024/04/12 07:29:26;;;;;;;101.67;96.27;;;22.80;1.00;;;;;;2613564;54;20408;-66
2024/04/12 07:31:53;;;;;;;102.00;96.70;;;22.80;1.00;;;;;;2613913;54;20473;-66
2024/04/12 07:34:19;;;;;;;103.60;98.20;;;22.80;1.00;;;;;;2614129;54;20391;-66
2024/04/12 07:36:45;;;;;;;105.40;100.00;;;22.80;1.00;;;;;;2613387;54;20414;-64
2024/04/12 07:39:15;;;;;;;105.20;99.90;;;22.80;1.00;;;;;;2612818;47;20170;-65
2024/04/12 07:41:45;;;;;;;108.30;102.90;;;22.80;1.00;;;;;;2612940;54;20242;-64
2024/04/12 07:44:14;;;;;;;106.23;100.90;;;22.90;1.00;;;;;;2612890;54;20390;-63
2024/04/12 07:46:51;;;;;;;105.73;100.43;;;22.90;1.00;;;;;;2614135;54;20416;-68
2024/04/12 07:49:18;;;;;;;99.70;94.80;;;22.90;1.00;;;;;;2613410;54;20407;-70
2024/04/12 07:51:49;;;;;;;96.10;91.30;;;22.90;1.00;;;;;;2614520;54;20423;-70
2024/04/12 07:54:15;;;;;;;98.50;93.70;;;22.90;1.00;;;;;;2613930;54;20448;-71
2024/04/12 07:56:56;;;;;;;103.07;97.87;;;23.00;1.00;;;;;;2612727;54;20542;-67
2024/04/12 07:59:27;;;;;;;106.97;101.57;;;23.00;1.00;;;;;;2612817;54;20419;-66
2024/04/12 08:01:57;;;;;;;113.60;108.10;;;23.10;1.00;;;;;;2612829;39;20985;-66
2024/04/12 08:04:23;;;;;;;107.30;101.90;;;23.00;1.00;;;;;;2611702;51;20426;-67
2024/04/12 08:09:24;;;;;;;104.73;99.53;;;23.10;1.00;;;;;;2613607;54;20380;-66
2024/04/12 08:11:59;;;;;;;104.77;99.43;;;23.10;1.00;;;;;;2612864;54;20495;-66
2024/04/12 08:14:26;;;;;;;102.63;97.43;;;23.10;1.00;;;;;;2612466;54;20395;-66
2024/04/12 08:16:56;;;;;;;103.87;98.57;;;23.10;1.00;;;;;;2612063;39;20797;-67
2024/04/12 08:19:22;;;;;;;102.37;97.07;;;23.00;1.00;;;;;;2613145;54;20443;-66
2024/04/12 08:21:50;;;;;;;80.93;77.03;;;23.00;1.00;;;;;;2613192;54;21059;-66
2024/04/12 08:24:22;;;;;;;81.20;77.30;;;23.00;1.00;;;;;;2612734;54;20427;-66
2024/04/12 08:26:48;;;;;;;82.50;78.50;;;23.00;1.00;;;;;;2612578;54;21094;-67
2024/04/12 08:29:28;;;;;;;82.20;78.10;;;23.00;1.00;;;;;;2612695;54;21114;-67
2024/04/12 08:34:36;;;;;;;84.30;80.10;;;23.00;1.00;;;;;;2613076;39;20738;-66
2024/04/12 08:37:12;;;;;;;81.70;77.70;;;23.00;1.00;;;;;;2612542;54;20519;-66
2024/04/12 08:39:45;;;;;;;84.13;80.03;;;23.00;1.00;;;;;;2613507;54;20427;-65
2024/04/12 08:42:16;;;;;;;81.67;77.67;;;23.00;1.00;;;;;;2613060;54;20404;-65
2024/04/12 08:44:43;;;;;;;81.70;77.70;;;23.00;1.00;;;;;;2613119;54;20439;-66
2024/04/12 08:50:13;;;;;;;81.63;77.63;;;22.90;1.00;;;;;;2613529;54;20514;-66
2024/04/12 08:52:47;;;;;;;83.20;79.00;;;23.00;1.00;;;;;;2613009;47;20419;-67
2024/04/12 08:55:15;;;;;;;82.33;78.13;;;22.90;1.00;;;;;;2611892;54;20903;-66
2024/04/12 08:57:41;;;;;;;83.43;79.23;;;22.90;1.00;;;;;;2614490;54;20423;-77
2024/04/12 09:00:18;;;;;;;83.30;79.20;;;22.90;1.00;;;;;;2611480;31;20915;-77
2024/04/12 09:02:58;;;;;;;81.30;77.30;;;23.00;1.00;;;;;;2609606;54;20383;-76
2024/04/12 09:05:26;;;;;;;83.10;78.90;;;23.00;1.00;;;;;;2610078;39;20829;-77
2024/04/12 09:07:56;;;;;;;82.03;77.93;;;22.90;1.00;;;;;;2610462;47;20419;-77
2024/04/12 09:10:22;;;;;;;82.57;78.47;;;22.90;1.00;;;;;;2609981;51;20443;-78
2024/04/12 09:12:47;;;;;;;82.10;78.00;;;22.90;1.00;;;;;;2610376;39;20524;-77
2024/04/12 09:15:23;;;;;;;83.23;79.03;;;22.90;1.00;;;;;;2610583;47;20468;-74
2024/04/12 09:18:00;;;;;;;83.30;79.10;;;22.90;1.00;;;;;;2610019;54;20240;-71
2024/04/12 09:20:30;;;;;;;82.23;78.13;;;22.90;1.00;;;;;;2610540;54;20506;-71
2024/04/12 09:23:19;;;;;;;83.07;78.97;;;22.90;1.00;;;;;;2611243;47;20420;-71
2024/04/12 09:25:56;;;;;;;83.40;79.20;;;23.00;1.00;;;;;;2610797;54;20454;-70
2024/04/12 09:28:32;;;;;;;83.33;79.13;;;22.90;1.00;;;;;;2610551;54;20395;-71
2024/04/12 09:33:56;;;;;;;83.30;79.10;;;22.90;1.00;;;;;;2609424;54;20415;-71
2024/04/12 09:36:44;;;;;;;83.80;79.60;;;22.90;1.00;;;;;;2609472;54;20453;-72
2024/04/12 09:39:16;;;;;;;83.73;79.53;;;22.90;1.00;;;;;;2609705;54;20520;-72
2024/04/12 09:41:56;;;;;;;83.37;79.23;;;22.90;1.00;;;;;;2609630;54;20436;-71
2024/04/12 09:44:38;;;;;;;83.83;79.53;;;22.90;1.00;;;;;;2609401;39;20787;-71
2024/04/12 10:37:44;;;;;;;83.40;79.20;;;23.10;1.00;;;;;;2612642;54;20487;-74
2024/04/12 10:40:11;;;;;;;83.40;79.20;;;23.10;1.00;;;;;;2610826;54;20407;-75
2024/04/12 10:42:38;;;;;;;83.20;79.00;;;23.10;1.00;;;;;;2611166;51;20181;-75
2024/04/12 10:45:14;;;;;;;83.70;79.40;;;23.10;1.00;;;;;;2610951;47;20419;-76
2024/04/12 10:47:44;;;;;;;82.90;78.70;;;23.10;1.00;;;;;;2610250;54;20431;-76
2024/04/12 10:50:10;;;;;;;82.97;78.77;;;23.10;1.00;;;;;;2610582;54;20406;-74
2024/04/12 10:52:38;;;;;;;83.20;79.00;;;23.20;1.00;;;;;;2610538;47;20400;-78
2024/04/12 10:55:09;;;;;;;82.50;78.30;;;23.10;1.00;;;;;;2611041;54;20416;-74
2024/04/12 10:57:42;;;;;;;82.43;78.33;;;23.10;1.00;;;;;;2609365;47;20427;-75
2024/04/12 11:00:16;;;;;;;82.57;78.47;;;23.20;1.00;;;;;;2610527;47;20431;-77
2024/04/12 11:02:46;;;;;;;82.63;78.50;;;23.20;1.00;;;;;;2610884;47;20447;-75
2024/04/12 11:07:46;;;;;;;81.87;77.87;;;23.20;1.00;;;;;;2613717;54;20953;-71
2024/04/12 11:10:24;;;;;;;81.80;77.80;;;23.20;1.00;;;;;;2612839;47;20435;-71
2024/04/12 11:12:59;;;;;;;82.00;78.00;;;23.20;1.00;;;;;;2613654;54;20415;-71
2024/04/12 11:31:43;;;;;;;83.27;79.07;;;23.20;1.00;;;;;;2612914;54;20414;-67
2024/04/12 11:34:09;;;;;;;82.77;78.67;;;23.20;1.00;;;;;;2612935;47;20431;-66
2024/04/12 11:36:39;;;;;;;82.93;78.83;;;23.20;1.00;;;;;;2614451;54;20166;-72
2024/04/12 11:39:25;;;;;;;80.97;76.97;;;23.20;1.00;;;;;;2614797;54;20151;-72
2024/04/12 11:41:52;;;;;;;81.83;77.73;;;23.20;1.00;;;;;;2613853;54;20503;-72
2024/04/12 11:44:18;;;;;;;83.13;79.03;;;23.20;1.00;;;;;;2614539;54;20406;-73
2024/04/12 11:46:45;;;;;;;83.60;79.40;;;23.20;1.00;;;;;;2614369;39;20672;-72
2024/04/12 11:49:12;;;;;;;82.50;78.40;;;23.30;1.00;;;;;;2614842;47;20456;-71
2024/04/12 11:51:39;;;;;;;83.93;79.73;;;23.30;1.00;;;;;;2613845;54;20423;-72
2024/04/12 11:54:05;;;;;;;82.73;78.63;;;23.40;1.00;;;;;;2615010;54;20462;-73
2024/04/12 11:56:34;;;;;;;82.03;78.00;;;23.40;1.00;;;;;;2614743;54;20977;-73
2024/04/12 11:59:00;;;;;;;83.47;79.27;;;23.50;1.00;;;;;;2614102;47;20167;-72
2024/04/12 12:01:30;;;;;;;82.70;78.60;;;23.50;1.00;;;;;;2613182;54;20411;-72
2024/04/12 12:03:58;;;;;;;81.70;77.63;;;23.50;1.00;;;;;;2613744;54;20435;-72
2024/04/12 12:06:25;;;;;;;81.20;77.20;;;23.60;1.00;;;;;;2613964;39;20653;-73
2024/04/12 12:08:57;;;;;;;82.50;78.40;;;23.70;1.00;;;;;;2614965;54;20451;-75
2024/04/12 12:11:27;;;;;;;81.87;77.77;;;23.70;1.00;;;;;;2616898;47;20460;-74
2024/04/12 12:13:54;;;;;;;83.20;79.10;;;23.70;1.00;;;;;;2620528;47;20434;-74
2024/04/12 12:16:20;;;;;;;81.60;77.57;;;23.80;1.00;;;;;;2615296;54;20438;-71
2024/04/12 12:18:46;;;;;;;83.00;78.90;;;23.80;1.00;;;;;;2614908;31;20917;-70
2024/04/12 12:21:14;;;;;;;82.90;78.80;;;23.80;1.00;;;;;;2614907;47;20431;-70
2024/04/12 12:23:40;;;;;;;81.90;77.80;;;23.80;1.00;;;;;;2614321;54;20420;-71
2024/04/12 12:26:08;;;;;;;81.40;77.30;;;23.80;1.00;;;;;;2615375;47;20463;-77
2024/04/12 12:28:34;;;;;;;81.90;77.90;;;23.80;1.00;;;;;;2614971;54;20162;-75
2024/04/12 12:31:00;;;;;;;82.27;78.27;;;23.80;1.00;;;;;;2614651;54;20419;-75
2024/04/12 12:33:33;;;;;;;81.20;77.20;;;23.70;1.00;;;;;;2615056;54;20431;-75
2024/04/12 12:35:59;;;;;;;82.00;78.00;;;23.70;1.00;;;;;;2613435;54;20407;-75
2024/04/12 12:38:24;;;;;;;81.90;77.90;;;23.60;1.00;;;;;;2615214;54;20422;-77
2024/04/12 12:40:50;;;;;;;81.80;77.80;;;23.50;1.00;;;;;;2614617;47;20200;-76
2024/04/12 12:43:16;;;;;;;81.83;77.73;;;23.50;1.00;;;;;;2615185;39;20570;-74
2024/04/12 12:45:43;;;;;;;82.43;78.33;;;23.40;1.00;;;;;;2613869;54;20972;-74
2024/04/12 12:48:19;;;;;;;81.07;76.97;;;23.40;1.00;;;;;;2614197;54;20169;-74
2024/04/12 12:50:46;;;;;;;81.30;77.20;;;23.40;1.00;;;;;;2614645;54;20455;-74
2024/04/12 12:53:13;;;;;;;78.67;74.73;;;23.50;1.00;;;;;;2612941;47;20843;-74
2024/04/12 12:55:39;;;;;;;79.37;75.37;;;23.50;1.00;;;;;;2613427;47;20407;-73
2024/04/12 12:58:11;;;;;;;80.10;76.10;;;23.50;1.00;;;;;;2614136;54;20485;-76
2024/04/12 13:00:44;;;;;;;78.77;74.77;;;23.40;1.00;;;;;;2613408;47;20434;-75
2024/04/12 13:03:17;;;;;;;80.20;76.10;;;23.40;1.00;;;;;;2613004;54;20419;-75
2024/04/12 13:05:45;;;;;;;80.07;76.07;;;23.40;1.00;;;;;;2612730;54;20400;-75
2024/04/12 13:08:15;;;;;;;80.30;76.20;;;23.40;1.00;;;;;;2615109;39;20791;-74
2024/04/12 13:10:43;;;;;;;80.90;76.90;;;23.40;1.00;;;;;;2614756;39;20788;-73
2024/04/12 13:13:17;;;;;;;79.90;75.90;;;23.40;1.00;;;;;;2614370;54;20420;-73
2024/04/12 13:15:44;;;;;;;79.70;75.70;;;23.40;1.00;;;;;;2614342;54;21015;-71
2024/04/12 13:18:09;;;;;;;78.67;74.77;;;23.40;1.00;;;;;;2614057;53;20427;-74
2024/04/12 13:20:36;;;;;;;82.37;78.27;;;23.40;1.00;;;;;;2613655;54;20400;-74
2024/04/12 13:23:05;;;;;;;81.70;77.60;;;23.40;1.00;;;;;;2613297;54;21048;-75
2024/04/12 13:25:30;;;;;;;81.30;77.20;;;23.40;1.00;;;;;;2613726;54;20475;-66
2024/04/12 13:27:56;;;;;;;81.60;77.50;;;23.40;1.00;;;;;;2613913;47;21065;-67
2024/04/12 13:30:22;;;;;;;82.57;78.47;;;23.40;1.00;;;;;;2613511;47;20166;-67
2024/04/12 13:32:49;;;;;;;82.03;77.93;;;23.40;1.00;;;;;;2613965;54;20249;-67
2024/04/12 13:35:16;;;;;;;81.07;77.07;;;23.40;1.00;;;;;;2613245;54;20179;-67
2024/04/12 13:37:45;;;;;;;81.97;77.87;;;23.40;1.00;;;;;;2613203;47;20441;-65
2024/04/12 13:40:17;;;;;;;79.87;75.97;;;23.30;1.00;;;;;;2612876;54;20431;-65
2024/04/12 13:42:45;;;;;;;82.33;78.23;;;23.30;1.00;;;;;;2613262;54;20396;-65
2024/04/12 13:50:54;;;;;;;82.10;78.00;;;23.20;1.00;;;;;;2612117;54;20839;-65
2024/04/12 13:53:31;;;;;;;82.00;77.80;;;23.20;1.00;;;;;;2613334;54;21007;-64
2024/04/12 13:56:20;;;;;;;81.90;77.80;;;23.20;1.00;;;;;;2613775;39;20789;-65
2024/04/12 13:58:49;;;;;;;82.57;78.43;;;23.20;1.00;;;;;;2613751;51;20528;-65
2024/04/12 14:01:22;;;;;;;82.03;78.00;;;23.30;1.00;;;;;;2612877;31;20830;-65
2024/04/12 14:04:02;;;;;;;82.50;78.30;;;23.20;1.00;;;;;;2612468;47;20906;-64
2024/04/12 14:06:34;;;;;;;83.33;79.13;;;23.20;1.00;;;;;;2614212;54;20375;-65
2024/04/12 14:09:01;;;;;;;81.60;77.50;;;23.20;1.00;;;;;;2611445;54;20395;-65
2024/04/12 14:11:27;;;;;;;80.37;76.37;;;23.20;1.00;;;;;;2610469;54;20395;-66
2024/04/12 14:13:53;;;;;;;81.97;77.87;;;23.20;1.00;;;;;;2608627;54;20422;-75
2024/04/12 14:16:29;;;;;;;84.47;80.27;;;23.20;1.00;;;;;;2609641;54;20523;-71
2024/04/12 14:18:58;;;;;;;86.17;81.87;;;23.20;1.00;;;;;;2611464;54;20379;-67